Tombarra — MPRD6 — position and weather

sailwx.info

Track history (hours):
 
Tides and Currents Weather Stations Pressure Air Temp Water Temp Dewpoint Dewpoint Depression Visibility Wind Speed Wind Dir Waves Ship Positions

Tombarra

Last reported at 2014-Jul-27 20:27 UTC. Time now 2014-Jul-29 08:51 UTC.
Position N 40°28' W 009°47'.

Length 199 m; draft 10.3 m.

Type: Ship. MMSI: 232971000.

Date/timePositionNaut miles runAvg speedWind from/ knotsBaromVisibWave heightAir tempDewpointWater temp
2014-Jul-27 20:27N 40°28' W 009°47'5818.5
2014-Jul-27 17:19N 39°30' W 009°49'1818.6
2014-Jul-27 16:23N 39°13' W 009°50'1618.6
2014-Jul-27 15:33N 38°57' W 009°52'3918.5
2014-Jul-27 13:25N 38°19' W 009°41'1618.4
2014-Jul-27 12:33N 38°03' W 009°36'1818.3
2014-Jul-27 11:33N 37°45' W 009°33'1818.5
2014-Jul-27 10:33N 37°27' W 009°27'2118.6
2014-Jul-27 09:24N 37°06' W 009°24'1518.1
2014-Jul-27 08:34N 36°51' W 009°19'1818.2
2014-Jul-27 07:34N 36°42' W 008°60'1818.2
2014-Jul-27 06:33N 36°35' W 008°39'1818.3
2014-Jul-27 05:34N 36°29' W 008°17'1918.3
2014-Jul-27 04:32N 36°24' W 007°55'1818.5
2014-Jul-27 03:34N 36°18' W 007°33'1919.0
2014-Jul-27 02:34N 36°12' W 007°11'2119.1
2014-Jul-27 01:27N 36°06' W 006°46'1719.0
2014-Jul-27 00:33N 36°01' W 006°26'2619.0
2014-Jul-26 23:10N 35°58' W 005°53'1219.0
2014-Jul-26 22:33N 35°57' W 005°39'1716.1
2014-Jul-26 21:29N 36°02' W 005°19'35318.3
2014-Jul-26 02:14N 36°57' E 001°55'1618.9
2014-Jul-26 01:23N 36°59' E 002°15'1518.4
2014-Jul-26 00:33N 37°01' E 002°34'5317.6
2014-Jul-25 21:32N 37°08' E 003°40'1917.8
2014-Jul-25 20:29N 37°11' E 004°03'1718.0
2014-Jul-25 19:33N 37°14' E 004°24'1818.3
2014-Jul-25 18:33N 37°16' E 004°47'1818.5
2014-Jul-25 17:33N 37°18' E 005°10'1918.6
2014-Jul-25 16:33N 37°21' E 005°33'6018.9
2014-Jul-25 13:22N 37°29' E 006°49'5519.0
2014-Jul-25 10:28N 37°37' E 007°57'1819.2
2014-Jul-25 09:32N 37°40' E 008°19'1918.9
2014-Jul-25 08:33N 37°43' E 008°43'1818.3
2014-Jul-25 07:33N 37°43' E 009°06'1918.3
2014-Jul-25 06:32N 37°41' E 009°29'1818.1
2014-Jul-25 05:33N 37°40' E 009°51'1818.1
2014-Jul-25 04:33N 37°39' E 010°14'1818.3
2014-Jul-25 03:33N 37°37' E 010°37'1918.7
2014-Jul-25 02:33N 37°31' E 010°59'8418.7
2014-Jul-24 22:04N 36°56' E 012°35'918.5
2014-Jul-24 21:34N 36°53' E 012°47'1918.8
2014-Jul-24 20:34N 36°49' E 013°10'1918.8
2014-Jul-24 19:34N 36°44' E 013°32'1919.0
2014-Jul-24 18:34N 36°38' E 013°55'1918.8
2014-Jul-24 17:33N 36°32' E 014°17'1918.7
2014-Jul-24 16:33N 36°25' E 014°39'1918.5
2014-Jul-24 15:33N 36°20' E 015°01'57618.5
2014-Jul-23 08:26N 33°24' E 026°10'7918.1
2014-Jul-23 04:04N 32°60' E 027°40'3018.7
2014-Jul-23 02:28N 32°51' E 028°14'2019.0
2014-Jul-23 01:25N 32°45' E 028°36'1719.2
2014-Jul-23 00:33N 32°40' E 028°55'2019.4
2014-Jul-22 23:33N 32°33' E 029°17'1918.9
2014-Jul-22 22:33N 32°27' E 029°38'1918.6
2014-Jul-22 21:32N 32°21' E 029°59'1818.3
2014-Jul-22 20:33N 32°16' E 030°20'1918.1
2014-Jul-22 19:32N 32°10' E 030°41'1818.2
2014-Jul-22 18:33N 32°05' E 031°01'1818.2
2014-Jul-22 17:34N 31°59' E 031°21'1818.1
2014-Jul-22 16:34N 31°52' E 031°41'1817.7
2014-Jul-22 15:34N 31°45' E 031°60'1817.7
2014-Jul-22 14:34N 31°32' E 032°14'1414.0
2014-Jul-22 13:33N 31°20' E 032°23'1010.3
2014-Jul-22 12:33N 31°10' E 032°20'  
Track history (hours):
 
Tides and Currents Weather Stations Pressure Air Temp Water Temp Dewpoint Dewpoint Depression Visibility Wind Speed Wind Dir Waves Ship Positions

Tombarra

Last reported at 2014-Jul-27 20:27 UTC. Time now 2014-Jul-29 08:51 UTC.
Position N 40°28' W 009°47'.

Length 199 m; draft 10.3 m.

Type: Ship. MMSI: 232971000.

Date/timePositionNaut miles runAvg speedWind from/ knotsBaromVisibWave heightAir tempDewpointWater temp
2014-Jul-27 20:27N 40°28' W 009°47'5818.5
2014-Jul-27 17:19N 39°30' W 009°49'1818.6
2014-Jul-27 16:23N 39°13' W 009°50'1618.6
2014-Jul-27 15:33N 38°57' W 009°52'3918.5
2014-Jul-27 13:25N 38°19' W 009°41'1618.4
2014-Jul-27 12:33N 38°03' W 009°36'1818.3
2014-Jul-27 11:33N 37°45' W 009°33'1818.5
2014-Jul-27 10:33N 37°27' W 009°27'2118.6
2014-Jul-27 09:24N 37°06' W 009°24'1518.1
2014-Jul-27 08:34N 36°51' W 009°19'1818.2
2014-Jul-27 07:34N 36°42' W 008°60'1818.2
2014-Jul-27 06:33N 36°35' W 008°39'1818.3
2014-Jul-27 05:34N 36°29' W 008°17'1918.3
2014-Jul-27 04:32N 36°24' W 007°55'1818.5
2014-Jul-27 03:34N 36°18' W 007°33'1919.0
2014-Jul-27 02:34N 36°12' W 007°11'2119.1
2014-Jul-27 01:27N 36°06' W 006°46'1719.0
2014-Jul-27 00:33N 36°01' W 006°26'2619.0
2014-Jul-26 23:10N 35°58' W 005°53'1219.0
2014-Jul-26 22:33N 35°57' W 005°39'1716.1
2014-Jul-26 21:29N 36°02' W 005°19'35318.3
2014-Jul-26 02:14N 36°57' E 001°55'1618.9
2014-Jul-26 01:23N 36°59' E 002°15'1518.4
2014-Jul-26 00:33N 37°01' E 002°34'5317.6
2014-Jul-25 21:32N 37°08' E 003°40'1917.8
2014-Jul-25 20:29N 37°11' E 004°03'1718.0
2014-Jul-25 19:33N 37°14' E 004°24'1818.3
2014-Jul-25 18:33N 37°16' E 004°47'1818.5
2014-Jul-25 17:33N 37°18' E 005°10'1918.6
2014-Jul-25 16:33N 37°21' E 005°33'6018.9
2014-Jul-25 13:22N 37°29' E 006°49'5519.0
2014-Jul-25 10:28N 37°37' E 007°57'1819.2
2014-Jul-25 09:32N 37°40' E 008°19'1918.9
2014-Jul-25 08:33N 37°43' E 008°43'1818.3
2014-Jul-25 07:33N 37°43' E 009°06'1918.3
2014-Jul-25 06:32N 37°41' E 009°29'1818.1
2014-Jul-25 05:33N 37°40' E 009°51'1818.1
2014-Jul-25 04:33N 37°39' E 010°14'1818.3
2014-Jul-25 03:33N 37°37' E 010°37'1918.7
2014-Jul-25 02:33N 37°31' E 010°59'8418.7
2014-Jul-24 22:04N 36°56' E 012°35'918.5
2014-Jul-24 21:34N 36°53' E 012°47'1918.8
2014-Jul-24 20:34N 36°49' E 013°10'1918.8
2014-Jul-24 19:34N 36°44' E 013°32'1919.0
2014-Jul-24 18:34N 36°38' E 013°55'1918.8
2014-Jul-24 17:33N 36°32' E 014°17'1918.7
2014-Jul-24 16:33N 36°25' E 014°39'1918.5
2014-Jul-24 15:33N 36°20' E 015°01'57618.5
2014-Jul-23 08:26N 33°24' E 026°10'7918.1
2014-Jul-23 04:04N 32°60' E 027°40'3018.7
2014-Jul-23 02:28N 32°51' E 028°14'2019.0
2014-Jul-23 01:25N 32°45' E 028°36'1719.2
2014-Jul-23 00:33N 32°40' E 028°55'2019.4
2014-Jul-22 23:33N 32°33' E 029°17'1918.9
2014-Jul-22 22:33N 32°27' E 029°38'1918.6
2014-Jul-22 21:32N 32°21' E 029°59'1818.3
2014-Jul-22 20:33N 32°16' E 030°20'1918.1
2014-Jul-22 19:32N 32°10' E 030°41'1818.2
2014-Jul-22 18:33N 32°05' E 031°01'1818.2
2014-Jul-22 17:34N 31°59' E 031°21'1818.1
2014-Jul-22 16:34N 31°52' E 031°41'1817.7
2014-Jul-22 15:34N 31°45' E 031°60'1817.7
2014-Jul-22 14:34N 31°32' E 032°14'1414.0
2014-Jul-22 13:33N 31°20' E 032°23'1010.3
2014-Jul-22 12:33N 31°10' E 032°20'  

Dump ship's entire track history